Time;durP1;ratioP1;P1;durP2;ratioP2;P2;SDS_P1;SDS_P2;PMS_P1;PMS_P2;Temp;Humidity;BMP_temperature;BMP_pressure;BME280_temperature;BME280_humidity;BME280_pressure;Samples;Min_cycle;Max_cycle;Signal;HPM_P1;HPM_P2
2023/05/22 00:01:25;;;;;;;;;;;;;;;16.77;47.20;100491.22;5088910;28;1913;-60
2023/05/22 00:03:54;;;;;;;;;;;;;;;16.68;46.33;100490.16;5093649;28;1122;-59
2023/05/22 00:06:19;;;;;;;;;;;;;;;16.62;45.92;100483.06;5088717;28;1122;-59
2023/05/22 00:08:45;;;;;;;;;;;;;;;16.55;45.73;100494.34;5093148;28;1054;-60
2023/05/22 00:11:10;;;;;;;;;;;;;;;17.43;46.65;100497.47;5077522;28;1063;-60
2023/05/22 00:13:36;;;;;;;;;;;;;;;16.87;46.96;100497.75;5094915;28;1062;-60
2023/05/22 00:16:02;;;;;;;;;;;;;;;16.69;46.55;100493.72;5086673;28;1218;-60
2023/05/22 00:18:27;;;;;;;;;;;;;;;16.53;46.29;100493.78;5094464;28;1379;-60
2023/05/22 00:20:53;;;;;;;;;;;;;;;17.16;46.52;100484.16;5086941;28;1984;-60
2023/05/22 00:23:19;;;;;;;;;;;;;;;16.89;47.14;100484.63;5077380;28;1035;-60
2023/05/22 00:25:44;;;;;;;;;;;;;;;16.65;46.85;100482.50;5087779;28;1110;-61
2023/05/22 00:28:10;;;;;;;;;;;;;;;16.61;45.91;100484.16;5092815;28;1082;-61
2023/05/22 00:30:35;;;;;;;;;;;;;;;17.21;46.39;100478.66;5077375;28;1106;-61
2023/05/22 00:33:01;;;;;;;;;;;;;;;17.13;47.12;100475.69;5077455;28;1059;-61
2023/05/22 00:35:27;;;;;;;;;;;;;;;16.73;46.92;100483.81;5088020;28;1054;-61
2023/05/22 00:37:53;;;;;;;;;;;;;;;16.69;46.35;100480.84;5083421;28;1135;-61
2023/05/22 00:40:19;;;;;;;;;;;;;;;16.56;45.98;100478.69;5096867;28;1006;-62
2023/05/22 00:42:45;;;;;;;;;;;;;;;16.54;45.31;100483.66;5096711;28;1974;-61
2023/05/22 00:45:12;;;;;;;;;;;;;;;16.43;45.12;100480.91;5086482;28;1416;-61
2023/05/22 00:47:37;;;;;;;;;;;;;;;16.37;45.14;100482.03;5049444;28;1183;-61
2023/05/22 00:50:04;;;;;;;;;;;;;;;17.10;46.78;100488.06;5097362;28;1049;-61
2023/05/22 00:52:30;;;;;;;;;;;;;;;16.69;46.91;100491.81;5078748;28;1054;-61
2023/05/22 00:54:55;;;;;;;;;;;;;;;16.57;46.41;100492.13;5085788;28;1146;-61
2023/05/22 00:57:21;;;;;;;;;;;;;;;16.48;45.96;100487.50;5076371;28;1111;-59
2023/05/22 00:59:47;;;;;;;;;;;;;;;16.31;45.76;100488.63;5086062;28;1201;-60
2023/05/22 01:02:15;;;;;;;;;;;;;;;16.46;44.89;100485.03;5076414;28;1963;-60
2023/05/22 01:04:44;;;;;;;;;;;;;;;17.60;46.42;100493.50;5059398;28;1402;-61
2023/05/22 01:07:09;;;;;;;;;;;;;;;16.92;47.19;100487.59;5063140;28;1031;-60
2023/05/22 01:09:35;;;;;;;;;;;;;;;16.56;46.77;100479.53;5078903;28;1125;-60
2023/05/22 01:12:17;;;;;;;;;;;;;;;16.41;46.51;100477.66;5096205;28;1094;-60
2023/05/22 01:14:52;;;;;;;;;;;;;;;16.42;45.90;100468.31;5061749;28;1039;-60
2023/05/22 01:17:22;;;;;;;;;;;;;;;16.33;45.40;100459.00;5049327;28;821;-60
2023/05/22 01:20:08;;;;;;;;;;;;;;;16.29;45.28;100468.09;5091692;28;1122;-60
2023/05/22 01:22:49;;;;;;;;;;;;;;;17.18;46.27;100467.41;5078359;28;1905;-60
2023/05/22 01:25:19;;;;;;;;;;;;;;;16.58;46.82;100471.81;5096120;28;1011;-60
2023/05/22 01:27:45;;;;;;;;;;;;;;;17.63;46.85;100479.16;5048305;28;1138;-59
2023/05/22 01:30:30;;;;;;;;;;;;;;;17.12;48.23;100485.03;5078099;28;1528;-63
2023/05/22 01:32:56;;;;;;;;;;;;;;;16.78;47.66;100483.81;5093361;28;1102;-61
2023/05/22 01:35:22;;;;;;;;;;;;;;;16.64;46.99;100489.09;5086179;28;1217;-59
2023/05/22 01:37:47;;;;;;;;;;;;;;;16.61;46.21;100492.41;5048435;28;1119;-59
2023/05/22 01:40:13;;;;;;;;;;;;;;;16.49;45.78;100491.88;5077728;28;1078;-59
2023/05/22 01:42:40;;;;;;;;;;;;;;;16.47;45.18;100481.19;5078506;28;1909;-59
2023/05/22 01:45:07;;;;;;;;;;;;;;;16.43;44.87;100488.34;5078346;28;1030;-59
2023/05/22 01:47:34;;;;;;;;;;;;;;;16.32;44.82;100487.53;5056292;28;1174;-59
2023/05/22 01:50:00;;;;;;;;;;;;;;;16.21;44.88;100488.66;5077579;28;1007;-59
2023/05/22 01:52:33;;;;;;;;;;;;;;;16.12;44.88;100484.84;5094860;28;1010;-58
2023/05/22 01:55:02;;;;;;;;;;;;;;;17.41;46.73;100493.34;5078263;28;1113;-61
2023/05/22 01:57:40;;;;;;;;;;;;;;;16.63;47.53;100490.19;5073036;28;1163;-58
2023/05/22 02:00:08;;;;;;;;;;;;;;;16.50;46.44;100496.28;5055250;28;1298;-59
2023/05/22 02:02:41;;;;;;;;;;;;;;;16.38;46.03;100485.59;5079262;28;1974;-59
2023/05/22 02:05:08;;;;;;;;;;;;;;;16.35;45.53;100481.50;5075210;28;1578;-59
2023/05/22 02:07:35;;;;;;;;;;;;;;;16.29;45.47;100479.88;5066015;28;1207;-60
2023/05/22 02:10:02;;;;;;;;;;;;;;;17.49;46.30;100483.66;5059558;28;1418;-59
2023/05/22 02:12:28;;;;;;;;;;;;;;;16.68;47.35;100475.63;5066875;28;1023;-59
2023/05/22 02:14:53;;;;;;;;;;;;;;;16.47;46.78;100474.91;5095415;28;1035;-60
2023/05/22 02:17:20;;;;;;;;;;;;;;;16.48;46.01;100477.34;5077164;28;1098;-59
2023/05/22 02:19:46;;;;;;;;;;;;;;;17.30;46.79;100481.59;5080907;28;1197;-59
2023/05/22 02:22:14;;;;;;;;;;;;;;;16.71;47.32;100483.28;5066054;28;1910;-59
2023/05/22 02:24:40;;;;;;;;;;;;;;;16.50;46.67;100479.81;5095944;28;1062;-59
2023/05/22 02:27:06;;;;;;;;;;;;;;;16.49;45.82;100487.22;5077870;28;1130;-59
2023/05/22 02:29:31;;;;;;;;;;;;;;;17.22;47.01;100488.53;5095439;28;995;-60
2023/05/22 02:31:57;;;;;;;;;;;;;;;16.71;46.97;100494.28;5069343;28;1209;-60
2023/05/22 02:34:25;;;;;;;;;;;;;;;16.53;46.65;100480.06;5072732;28;1142;-59
2023/05/22 02:36:51;;;;;;;;;;;;;;;16.53;45.90;100487.47;5096036;28;1114;-59
2023/05/22 02:39:17;;;;;;;;;;;;;;;17.39;46.44;100487.31;5093932;28;1042;-59
2023/05/22 02:41:42;;;;;;;;;;;;;;;16.71;46.88;100483.28;5057249;28;1973;-59
2023/05/22 02:44:08;;;;;;;;;;;;;;;16.54;46.53;100480.91;5059335;28;1129;-59
2023/05/22 02:46:33;;;;;;;;;;;;;;;17.63;46.73;100479.16;5068623;28;1227;-59
2023/05/22 02:48:59;;;;;;;;;;;;;;;16.90;47.41;100480.75;5057660;28;1098;-59
2023/05/22 02:51:26;;;;;;;;;;;;;;;16.70;46.97;100481.66;5057259;28;1335;-59
2023/05/22 02:53:51;;;;;;;;;;;;;;;16.54;46.29;100483.66;5063021;28;1146;-59
2023/05/22 02:56:17;;;;;;;;;;;;;;;16.95;46.70;100479.91;5072566;28;1738;-59
2023/05/22 02:58:43;;;;;;;;;;;;;;;16.89;46.99;100482.69;5076065;28;1292;-59
2023/05/22 03:01:09;;;;;;;;;;;;;;;16.74;46.26;100469.81;5090320;28;1913;-59
2023/05/22 03:03:34;;;;;;;;;;;;;;;16.52;45.89;100477.59;5094000;28;1071;-59
2023/05/22 03:06:02;;;;;;;;;;;;;;;16.56;45.78;100478.69;5080566;28;1260;-59
2023/05/22 03:08:28;;;;;;;;;;;;;;;16.95;46.80;100477.97;5080679;28;1472;-60
2023/05/22 03:10:55;;;;;;;;;;;;;;;16.69;46.49;100490.97;5098900;28;1137;-59
2023/05/22 03:13:21;;;;;;;;;;;;;;;16.60;45.86;100485.25;5083721;28;1146;-59
2023/05/22 03:15:46;;;;;;;;;;;;;;;16.38;45.79;100478.22;5060626;28;1189;-60
2023/05/22 03:18:15;;;;;;;;;;;;;;;16.43;45.02;100478.16;5093177;28;1122;-59
2023/05/22 03:20:41;;;;;;;;;;;;;;;17.37;46.49;100486.78;5080486;28;1976;-58
2023/05/22 03:23:07;;;;;;;;;;;;;;;16.67;46.99;100474.78;5078543;28;1291;-58
2023/05/22 03:25:32;;;;;;;;;;;;;;;16.62;46.17;100488.56;5069036;28;1314;-58
2023/05/22 03:27:58;;;;;;;;;;;;;;;16.49;45.75;100475.41;5080338;28;1105;-58
2023/05/22 03:30:26;;;;;;;;;;;;;;;17.42;46.57;100482.06;5073428;28;1396;-60
2023/05/22 03:33:08;;;;;;;;;;;;;;;16.89;47.27;100490.09;5063872;28;1352;-57
2023/05/22 03:35:35;;;;;;;;;;;;;;;16.66;46.77;100486.91;5080496;28;1133;-55
2023/05/22 03:38:00;;;;;;;;;;;;;;;17.38;47.04;100481.00;5098562;28;1070;-56
2023/05/22 03:40:26;;;;;;;;;;;;;;;16.79;47.15;100476.38;5093704;28;1129;-58
2023/05/22 03:42:52;;;;;;;;;;;;;;;16.71;46.63;100478.63;5060295;28;1890;-57
2023/05/22 03:45:17;;;;;;;;;;;;;;;16.59;46.04;100472.63;5065421;28;1150;-58
2023/05/22 03:47:43;;;;;;;;;;;;;;;16.49;45.61;100470.75;5080653;28;1276;-57
2023/05/22 03:50:08;;;;;;;;;;;;;;;17.15;46.41;100466.03;5080154;28;1296;-56
2023/05/22 03:52:34;;;;;;;;;;;;;;;17.03;47.29;100471.09;5060345;28;1550;-59
2023/05/22 03:55:00;;;;;;;;;;;;;;;16.66;47.25;100473.16;5087067;28;1190;-56
2023/05/22 03:57:26;;;;;;;;;;;;;;;16.55;46.44;100469.63;5048539;28;1468;-60
2023/05/22 03:59:51;;;;;;;;;;;;;;;16.43;46.10;100474.63;5060007;28;1285;-58
2023/05/22 04:02:17;;;;;;;;;;;;;;;16.51;45.53;100481.44;5057852;28;1922;-60
2023/05/22 04:04:44;;;;;;;;;;;;;;;17.14;46.47;100477.31;5076696;28;1146;-60
2023/05/22 04:07:13;;;;;;;;;;;;;;;16.60;47.08;100479.75;5088789;28;1121;-62
2023/05/22 04:09:39;;;;;;;;;;;;;;;16.44;46.62;100470.78;5078170;28;1031;-61
2023/05/22 04:12:05;;;;;;;;;;;;;;;16.38;45.81;100483.69;5077594;28;1010;-64
2023/05/22 04:14:31;;;;;;;;;;;;;;;16.28;45.70;100483.72;5077470;28;1034;-61
2023/05/22 04:16:57;;;;;;;;;;;;;;;16.22;45.54;100484.84;5077897;28;1289;-59
2023/05/22 04:19:22;;;;;;;;;;;;;;;16.17;45.20;100476.59;5077402;28;898;-60
2023/05/22 04:21:48;;;;;;;;;;;;;;;16.23;45.10;100486.50;5059390;28;1976;-63
2023/05/22 04:24:13;;;;;;;;;;;;;;;16.93;46.43;100488.44;5059397;28;1186;-61
2023/05/22 04:26:39;;;;;;;;;;;;;;;16.38;47.00;100485.59;5076998;28;1132;-62
2023/05/22 04:29:09;;;;;;;;;;;;;;;16.33;46.42;100478.22;5056072;28;1316;-62
2023/05/22 04:31:37;;;;;;;;;;;;;;;16.32;45.92;100473.81;5089550;28;1067;-62
2023/05/22 04:34:04;;;;;;;;;;;;;;;16.22;45.59;100476.59;5042879;28;1277;-57
2023/05/22 04:36:29;;;;;;;;;;;;;;;17.30;46.04;100472.56;5075893;28;1209;-60
2023/05/22 04:38:55;;;;;;;;;;;;;;;16.69;47.16;100475.34;5059872;28;1092;-63
2023/05/22 04:41:26;;;;;;;;;;;;;;;16.51;46.69;100476.78;5081608;28;1988;-61
2023/05/22 04:43:52;;;;;;;;;;;;;;;16.42;46.47;100471.06;5087272;28;867;-61
2023/05/22 04:46:18;;;;;;;;;;;;;;;16.23;45.98;100481.81;5076613;28;1093;-62
2023/05/22 04:48:44;;;;;;;;;;;;;;;16.35;45.44;100481.50;5075002;28;1027;-64
2023/05/22 04:51:09;;;;;;;;;;;;;;;17.09;46.24;100480.91;5066452;28;1119;-63
2023/05/22 04:53:37;;;;;;;;;;;;;;;16.56;46.83;100486.91;5043327;28;1290;-63
2023/05/22 04:56:03;;;;;;;;;;;;;;;16.41;46.53;100483.13;5046871;28;1128;-64
2023/05/22 04:58:29;;;;;;;;;;;;;;;16.25;46.11;100478.78;5039377;28;1392;-62
2023/05/22 05:00:56;;;;;;;;;;;;;;;17.57;44.44;100483.06;5058105;28;1901;-64
2023/05/22 05:03:22;;;;;;;;;;;;;;;17.09;45.69;100476.25;5077167;28;1142;-63
2023/05/22 05:05:48;;;;;;;;;;;;;;;16.86;46.52;100482.41;5046135;28;1202;-63
2023/05/22 05:08:13;;;;;;;;;;;;;;;16.73;46.97;100484.66;5056607;28;1367;-62
2023/05/22 05:10:39;;;;;;;;;;;;;;;16.57;47.75;100485.81;5054957;28;1155;-63
2023/05/22 05:13:04;;;;;;;;;;;;;;;16.48;47.93;100488.34;5055328;28;1348;-64
2023/05/22 05:15:34;;;;;;;;;;;;;;;16.41;48.23;100494.13;5048685;28;1399;-61
2023/05/22 05:18:01;;;;;;;;;;;;;;;16.34;48.56;100485.34;5059461;28;1419;-64
2023/05/22 05:20:26;;;;;;;;;;;;;;;16.24;49.19;100488.09;5080013;28;1034;-64
2023/05/22 05:22:53;;;;;;;;;;;;;;;16.17;49.45;100482.09;5054080;28;1905;-63
2023/05/22 05:25:19;;;;;;;;;;;;;;;16.17;49.44;100490.31;5076447;28;1118;-63
2023/05/22 05:27:45;;;;;;;;;;;;;;;16.08;49.70;100479.09;5058302;28;1396;-62
2023/05/22 05:30:11;;;;;;;;;;;;;;;16.08;49.75;100485.41;5051293;28;1368;-63
2023/05/22 05:32:48;;;;;;;;;;;;;;;15.99;50.35;100480.75;5052189;28;1381;-60
2023/05/22 05:35:24;;;;;;;;;;;;;;;15.95;50.24;100486.00;5076035;28;1090;-64
2023/05/22 05:38:01;;;;;;;;;;;;;;;16.16;50.14;100485.94;5076275;28;1201;-61
2023/05/22 05:40:28;;;;;;;;;;;;;;;17.22;47.40;100484.94;5058374;28;1245;-64
2023/05/22 05:42:53;;;;;;;;;;;;;;;16.53;49.37;100482.00;5064445;28;1906;-65
2023/05/22 05:45:23;;;;;;;;;;;;;;;16.29;50.06;100479.06;5058524;28;1225;-63
2023/05/22 05:47:49;;;;;;;;;;;;;;;16.22;50.33;100482.91;5041320;28;1173;-66
2023/05/22 05:50:15;;;;;;;;;;;;;;;16.10;51.04;100478.81;5058085;28;1147;-64
2023/05/22 05:52:41;;;;;;;;;;;;;;;16.03;51.09;100488.19;5058140;28;1181;-64
2023/05/22 05:55:11;;;;;;;;;;;;;;;15.95;51.38;100483.25;5047427;28;1237;-60
2023/05/22 05:57:36;;;;;;;;;;;;;;;17.39;47.99;100490.06;5066448;28;1135;-59
2023/05/22 06:00:08;;;;;;;;;;;;;;;16.87;49.41;100484.03;5047496;28;1262;-59
2023/05/22 06:02:40;;;;;;;;;;;;;;;16.46;50.47;100484.22;5064312;28;1902;-62
2023/05/22 06:05:16;;;;;;;;;;;;;;;16.27;50.91;100486.72;5050472;28;1325;-63
2023/05/22 06:07:42;;;;;;;;;;;;;;;16.15;51.34;100495.28;5041785;28;1211;-60
2023/05/22 06:10:09;;;;;;;;;;;;;;;16.09;51.48;100502.69;5037638;28;1623;-61
2023/05/22 06:12:50;;;;;;;;;;;;;;;16.06;51.54;100504.06;5038041;28;1203;-60
2023/05/22 06:15:16;;;;;;;;;;;;;;;15.96;51.95;100504.06;5048424;28;1319;-60
2023/05/22 06:17:42;;;;;;;;;;;;;;;16.50;51.21;100501.78;5047821;28;1173;-62
2023/05/22 06:20:07;;;;;;;;;;;;;;;17.37;48.57;100498.59;5069571;28;1335;-61
2023/05/22 06:22:34;;;;;;;;;;;;;;;16.69;50.57;100500.06;5057839;28;1961;-61
2023/05/22 06:25:00;;;;;;;;;;;;;;;16.39;51.48;100501.78;5076312;28;1229;-58
2023/05/22 06:27:27;;;;;;;;;;;;;;;16.28;51.63;100510.34;5059462;28;1436;-61
2023/05/22 06:29:53;;;;;;;;;;;;;;;16.17;52.07;100504.88;5061522;28;1150;-60
2023/05/22 06:32:20;;;;;;;;;;;;;;;16.08;52.40;100507.34;5066870;28;1368;-59
2023/05/22 06:34:48;;;;;;;;;;;;;;;16.04;52.46;100505.44;5058651;28;1160;-61
2023/05/22 06:37:16;;;;;;;;;;;;;;;17.24;49.76;100497.31;5061349;28;1346;-60
2023/05/22 06:39:44;;;;;;;;;;;;;;;17.03;50.11;100499.38;5061152;28;1249;-60
2023/05/22 06:42:14;;;;;;;;;;;;;;;16.58;51.47;100495.72;5060760;28;1910;-60
2023/05/22 06:44:58;;;;;;;;;;;;;;;16.45;52.08;100504.53;5066568;28;938;-60
2023/05/22 06:47:31;;;;;;;;;;;;;;;16.27;52.38;100494.97;5057472;28;1434;-60
2023/05/22 06:49:56;;;;;;;;;;;;;;;16.28;52.63;100477.41;5065523;28;1182;-60
2023/05/22 06:52:23;;;;;;;;;;;;;;;16.13;52.73;100489.22;5063794;28;1096;-60
2023/05/22 06:54:48;;;;;;;;;;;;;;;16.27;52.87;100501.28;5069198;28;1118;-62
2023/05/22 06:57:14;;;;;;;;;;;;;;;17.64;49.54;100493.72;5061118;28;1313;-61
2023/05/22 06:59:40;;;;;;;;;;;;;;;16.85;51.37;100498.03;5089866;28;1126;-60
2023/05/22 07:02:05;;;;;;;;;;;;;;;16.54;52.08;100492.69;5073995;28;1898;-60
2023/05/22 07:05:09;;;;;;;;;;;;;;;16.47;52.41;100499.59;5064620;28;1168;-60
2023/05/22 07:07:46;;;;;;;;;;;;;;;16.24;53.15;100499.09;5043006;28;1603;-58
2023/05/22 07:10:12;;;;;;;;;;;;;;;16.20;52.92;100503.47;5057246;28;1160;-59
2023/05/22 07:12:38;;;;;;;;;;;;;;;16.10;53.35;100503.50;5060837;28;1120;-59
2023/05/22 07:15:03;;;;;;;;;;;;;;;16.03;53.31;100495.56;5056772;28;1201;-61
2023/05/22 07:17:30;;;;;;;;;;;;;;;17.38;50.53;100494.75;5061007;28;1423;-62
2023/05/22 07:19:56;;;;;;;;;;;;;;;16.99;51.50;100494.72;5070484;28;1273;-60
2023/05/22 07:22:23;;;;;;;;;;;;;;;16.55;52.65;100488.84;5053307;28;1942;-61
2023/05/22 07:24:48;;;;;;;;;;;;;;;16.39;53.06;100488.06;5078211;28;1130;-61
2023/05/22 07:27:16;;;;;;;;;;;;;;;16.28;53.23;100489.19;5059947;28;1188;-62
2023/05/22 07:29:43;;;;;;;;;;;;;;;16.23;53.52;100490.03;5060433;28;1206;-62
2023/05/22 07:32:09;;;;;;;;;;;;;;;16.14;53.72;100485.41;5089244;28;1095;-62
2023/05/22 07:34:36;;;;;;;;;;;;;;;16.11;53.66;100483.22;5061690;28;1278;-63
2023/05/22 07:37:09;;;;;;;;;;;;;;;16.00;53.94;100480.47;5047433;28;1296;-64
2023/05/22 07:39:35;;;;;;;;;;;;;;;16.25;53.32;100485.09;5066299;28;1289;-65
2023/05/22 07:42:01;;;;;;;;;;;;;;;17.50;50.49;100479.81;5052133;28;1909;-64
2023/05/22 07:44:28;;;;;;;;;;;;;;;16.76;52.55;100488.78;5054623;28;1370;-64
2023/05/22 07:46:54;;;;;;;;;;;;;;;16.51;53.25;100468.56;5047651;28;1242;-61
2023/05/22 07:49:22;;;;;;;;;;;;;;;16.36;53.49;100469.41;5053180;28;1235;-61
2023/05/22 07:51:49;;;;;;;;;;;;;;;16.29;53.47;100466.16;5042274;28;1566;-64
2023/05/22 07:54:15;;;;;;;;;;;;;;;16.16;53.74;100461.25;5067458;28;993;-61
2023/05/22 07:56:44;;;;;;;;;;;;;;;16.10;54.03;100465.09;5026405;28;1248;-58
2023/05/22 07:59:11;;;;;;;;;;;;;;;16.01;54.21;100465.66;5048814;28;1200;-60
2023/05/22 08:01:36;;;;;;;;;;;;;;;16.01;54.03;100456.63;5064376;28;1906;-63
2023/05/22 08:04:02;;;;;;;;;;;;;;;17.39;51.22;100465.31;5070143;28;1277;-57
2023/05/22 08:06:28;;;;;;;;;;;;;;;17.02;52.03;100467.50;5084184;28;1173;-62
2023/05/22 08:08:54;;;;;;;;;;;;;;;16.58;53.34;100465.50;5081320;28;1082;-59
2023/05/22 08:11:20;;;;;;;;;;;;;;;16.42;53.72;100462.84;5097515;28;1109;-61
2023/05/22 08:13:45;;;;;;;;;;;;;;;16.29;53.74;100457.94;5074975;28;1027;-61
2023/05/22 08:16:11;;;;;;;;;;;;;;;16.22;53.97;100454.66;5086374;28;1069;-61
2023/05/22 08:18:36;;;;;;;;;;;;;;;16.05;54.65;100457.72;5073915;28;1035;-60
2023/05/22 08:21:02;;;;;;;;;;;;;;;16.07;54.56;100461.00;5076191;28;1971;-58
2023/05/22 08:23:28;;;;;;;;;;;;;;;16.10;54.93;100462.38;5066405;28;1063;-60
2023/05/22 08:25:54;;;;;;;;;;;;;;;16.08;54.88;100457.97;5059350;28;1099;-60
2023/05/22 08:28:20;;;;;;;;;;;;;;;15.94;54.95;100451.44;5059160;28;1222;-60
2023/05/22 08:30:45;;;;;;;;;;;;;;;16.74;53.71;100464.31;5083954;28;1023;-60
2023/05/22 08:33:11;;;;;;;;;;;;;;;17.21;52.61;100453.13;5067926;28;1047;-60
2023/05/22 08:35:36;;;;;;;;;;;;;;;16.60;54.17;100468.78;5080135;28;1016;-59
2023/05/22 08:38:02;;;;;;;;;;;;;;;16.41;54.37;100466.66;5057878;28;1349;-59
2023/05/22 08:40:31;;;;;;;;;;;;;;;16.22;54.99;100455.47;5059639;28;1107;-61
2023/05/22 08:42:57;;;;;;;;;;;;;;;16.19;54.59;100457.97;5054394;28;1983;-60
2023/05/22 08:45:24;;;;;;;;;;;;;;;16.17;54.83;100460.16;5078455;28;1035;-60
2023/05/22 08:47:51;;;;;;;;;;;;;;;16.07;54.90;100456.34;5064676;28;1610;-60
2023/05/22 08:50:17;;;;;;;;;;;;;;;16.08;54.80;100447.00;5071047;28;1202;-60
2023/05/22 08:52:49;;;;;;;;;;;;;;;17.48;52.23;100463.59;5058931;28;1230;-61
2023/05/22 08:55:15;;;;;;;;;;;;;;;16.88;53.58;100456.31;5064322;28;1452;-60
2023/05/22 08:57:41;;;;;;;;;;;;;;;16.56;54.58;100453.97;5075700;28;1245;-60
2023/05/22 09:00:07;;;;;;;;;;;;;;;16.42;54.82;100462.84;5096418;28;1153;-60
2023/05/22 09:02:32;;;;;;;;;;;;;;;16.28;54.92;100448.03;5071066;28;1899;-60
2023/05/22 09:05:00;;;;;;;;;;;;;;;16.16;55.12;100444.78;5055581;28;1099;-60
2023/05/22 09:07:26;;;;;;;;;;;;;;;16.12;55.03;100441.78;5068952;28;1199;-60
2023/05/22 09:09:52;;;;;;;;;;;;;;;16.07;54.91;100437.16;5074892;28;882;-59
2023/05/22 09:12:17;;;;;;;;;;;;;;;16.02;55.09;100444.53;5075800;28;1106;-60
2023/05/22 09:14:43;;;;;;;;;;;;;;;16.74;53.99;100442.34;5073380;28;1023;-60
2023/05/22 09:17:10;;;;;;;;;;;;;;;17.15;53.04;100440.50;5074456;28;1094;-61
2023/05/22 09:19:36;;;;;;;;;;;;;;;16.57;54.52;100447.41;5064677;28;1093;-60
2023/05/22 09:22:05;;;;;;;;;;;;;;;16.36;54.93;100444.72;5081714;28;1966;-60
2023/05/22 09:24:31;;;;;;;;;;;;;;;16.28;55.03;100445.31;5070217;28;1122;-61
2023/05/22 09:26:56;;;;;;;;;;;;;;;16.19;55.31;100436.03;5058510;28;1198;-60
2023/05/22 09:29:22;;;;;;;;;;;;;;;16.12;55.17;100436.31;5069305;28;1194;-60
2023/05/22 09:31:47;;;;;;;;;;;;;;;16.08;54.99;100435.22;5070434;28;1059;-60
2023/05/22 09:34:16;;;;;;;;;;;;;;;17.36;52.91;100431.00;5059729;28;1217;-59
2023/05/22 09:36:42;;;;;;;;;;;;;;;17.04;53.54;100435.09;5062308;28;1142;-59
2023/05/22 09:39:08;;;;;;;;;;;;;;;16.62;54.46;100436.41;5056132;28;1124;-60
2023/05/22 09:41:37;;;;;;;;;;;;;;;16.41;54.96;100424.66;5075729;28;1887;-59
2023/05/22 09:44:06;;;;;;;;;;;;;;;16.35;55.09;100434.84;5077658;28;1197;-60
2023/05/22 09:46:37;;;;;;;;;;;;;;;16.28;54.98;100428.03;5082165;28;1071;-61
2023/05/22 09:49:03;;;;;;;;;;;;;;;16.20;55.30;100423.94;5063365;28;1070;-59
2023/05/22 09:51:28;;;;;;;;;;;;;;;16.15;55.20;100432.19;5050849;28;1127;-60
2023/05/22 09:54:02;;;;;;;;;;;;;;;16.06;55.10;100427.28;5057382;28;1214;-61
2023/05/22 09:56:28;;;;;;;;;;;;;;;16.81;54.38;100425.56;5070485;28;1162;-60
2023/05/22 09:58:53;;;;;;;;;;;;;;;17.38;52.77;100428.78;5058904;28;1296;-60
2023/05/22 10:01:19;;;;;;;;;;;;;;;16.71;54.56;100429.19;5038489;28;1902;-59
2023/05/22 10:03:45;;;;;;;;;;;;;;;16.51;54.90;100421.06;5060593;28;1194;-59
2023/05/22 10:06:11;;;;;;;;;;;;;;;16.44;54.87;100432.34;5059644;28;1211;-60
2023/05/22 10:08:43;;;;;;;;;;;;;;;16.36;55.05;100431.00;5069505;28;1312;-60
2023/05/22 10:11:08;;;;;;;;;;;;;;;16.21;55.27;100431.06;5078010;28;1170;-59
2023/05/22 10:13:36;;;;;;;;;;;;;;;16.17;55.32;100428.06;5079393;28;1095;-58
2023/05/22 10:16:03;;;;;;;;;;;;;;;16.07;55.30;100425.34;5079718;28;1082;-61
2023/05/22 10:18:29;;;;;;;;;;;;;;;16.02;55.38;100434.41;5061316;28;1125;-61
2023/05/22 10:20:55;;;;;;;;;;;;;;;17.33;53.37;100433.50;5080005;28;1902;-60
2023/05/22 10:23:21;;;;;;;;;;;;;;;17.00;54.23;100423.03;5044877;28;1907;-60
2023/05/22 10:25:47;;;;;;;;;;;;;;;16.57;55.04;100417.19;5082170;28;1078;-59
2023/05/22 10:28:13;;;;;;;;;;;;;;;16.41;55.30;100433.75;5068363;28;1037;-59
2023/05/22 10:30:39;;;;;;;;;;;;;;;16.32;55.37;100443.63;5085147;28;1043;-59
2023/05/22 10:33:32;;;;;;;;;;;;;;;16.19;55.34;100436.03;5055479;28;1262;-59
2023/05/22 10:35:58;;;;;;;;;;;;;;;16.08;55.65;100432.47;5051713;28;1087;-60
2023/05/22 10:38:41;;;;;;;;;;;;;;;16.83;54.61;100445.34;5077660;28;1071;-61
2023/05/22 10:41:07;;;;;;;;;;;;;;;17.17;54.01;100444.59;5077647;28;1977;-60
2023/05/22 10:43:34;;;;;;;;;;;;;;;16.70;55.10;100445.94;5076894;28;1035;-61
2023/05/22 10:46:00;;;;;;;;;;;;;;;16.46;55.35;100443.06;5073081;28;1356;-60
2023/05/22 10:48:26;;;;;;;;;;;;;;;16.30;55.66;100437.63;5078678;28;979;-60
2023/05/22 10:50:52;;;;;;;;;;;;;;;16.21;55.53;100431.88;5060891;28;1133;-60
2023/05/22 10:53:24;;;;;;;;;;;;;;;16.12;55.72;100419.00;5078827;28;1118;-60
2023/05/22 10:55:50;;;;;;;;;;;;;;;16.01;55.64;100430.03;5078297;28;992;-58
2023/05/22 10:58:16;;;;;;;;;;;;;;;16.12;56.09;100441.78;5084838;28;1014;-59
2023/05/22 11:00:42;;;;;;;;;;;;;;;17.53;54.01;100438.00;5063697;28;1532;-58
2023/05/22 11:03:08;;;;;;;;;;;;;;;16.88;55.31;100437.09;5080078;28;1980;-58
2023/05/22 11:05:35;;;;;;;;;;;;;;;16.57;55.94;100430.91;5066036;28;1472;-58
2023/05/22 11:08:09;;;;;;;;;;;;;;;16.37;56.26;100429.91;5078745;28;1062;-57
2023/05/22 11:10:54;;;;;;;;;;;;;;;16.21;56.42;100425.56;5090395;28;1390;-58
2023/05/22 11:13:20;;;;;;;;;;;;;;;16.14;56.00;100425.88;5067098;28;1227;-57
2023/05/22 11:15:45;;;;;;;;;;;;;;;16.10;56.11;100426.72;5072744;28;995;-59
2023/05/22 11:18:11;;;;;;;;;;;;;;;16.01;56.21;100427.28;5053692;28;1147;-60
2023/05/22 11:20:38;;;;;;;;;;;;;;;17.32;55.27;100432.69;5078677;28;1061;-58
2023/05/22 11:23:04;;;;;;;;;;;;;;;16.98;55.80;100438.16;5065269;28;1902;-58
2023/05/22 11:25:30;;;;;;;;;;;;;;;16.55;56.47;100439.44;5077660;28;992;-61
2023/05/22 11:27:56;;;;;;;;;;;;;;;16.36;56.43;100441.97;5060261;28;1186;-57
2023/05/22 11:30:24;;;;;;;;;;;;;;;16.19;56.51;100436.81;5081447;28;1055;-57
2023/05/22 11:32:50;;;;;;;;;;;;;;;17.23;55.69;100432.47;5083681;28;1138;-58
2023/05/22 11:35:16;;;;;;;;;;;;;;;17.19;55.68;100431.38;5089443;28;1074;-56
2023/05/22 11:37:42;;;;;;;;;;;;;;;16.68;56.44;100437.19;5068531;28;1322;-55
2023/05/22 11:40:08;;;;;;;;;;;;;;;16.52;56.66;100439.16;5070201;28;1083;-57
2023/05/22 11:42:33;;;;;;;;;;;;;;;16.35;56.49;100439.53;5069787;28;1981;-58
2023/05/22 11:44:59;;;;;;;;;;;;;;;16.26;56.40;100436.53;5083996;28;1134;-60
2023/05/22 11:47:27;;;;;;;;;;;;;;;16.20;56.45;100432.16;5076279;28;1222;-60
2023/05/22 11:49:53;;;;;;;;;;;;;;;16.08;56.26;100429.72;5077986;28;1133;-60
2023/05/22 11:52:19;;;;;;;;;;;;;;;16.06;56.06;100432.75;5066311;28;1213;-58
2023/05/22 11:54:47;;;;;;;;;;;;;;;15.97;56.31;100417.97;5075818;28;1154;-59
2023/05/22 11:57:13;;;;;;;;;;;;;;;17.15;56.37;100416.56;5059478;28;1134;-58
2023/05/22 11:59:39;;;;;;;;;;;;;;;17.09;56.43;100415.78;5072850;28;1070;-58
2023/05/22 12:02:07;;;;;;;;;;;;;;;16.53;57.25;100413.38;5061098;28;1909;-57
2023/05/22 12:04:32;;;;;;;;;;;;;;;16.39;57.11;100418.66;5070406;28;1224;-58
2023/05/22 12:06:58;;;;;;;;;;;;;;;16.30;56.68;100418.41;5062069;28;1377;-58
2023/05/22 12:09:25;;;;;;;;;;;;;;;16.19;56.68;100430.53;5051364;28;1147;-58
2023/05/22 12:11:53;;;;;;;;;;;;;;;16.12;56.63;100419.00;5076277;28;1146;-58
2023/05/22 12:14:18;;;;;;;;;;;;;;;17.40;56.12;100423.00;5058736;28;1130;-58
2023/05/22 12:16:44;;;;;;;;;;;;;;;16.92;56.86;100429.13;5043464;28;1385;-60
2023/05/22 12:19:10;;;;;;;;;;;;;;;16.59;57.01;100428.72;5071546;28;1119;-59
2023/05/22 12:21:40;;;;;;;;;;;;;;;16.39;57.24;100430.44;5069170;28;1886;-59
2023/05/22 12:24:06;;;;;;;;;;;;;;;16.26;56.99;100422.81;5085894;28;1077;-60
2023/05/22 12:26:31;;;;;;;;;;;;;;;16.18;56.77;100417.91;5071749;28;1030;-59
2023/05/22 12:28:57;;;;;;;;;;;;;;;16.17;56.50;100411.63;5060915;28;1316;-59
2023/05/22 12:31:25;;;;;;;;;;;;;;;16.08;56.19;100414.09;5064462;28;1068;-59
2023/05/22 12:33:56;;;;;;;;;;;;;;;16.23;56.95;100415.97;5076332;28;1023;-60
2023/05/22 12:36:42;;;;;;;;;;;;;;;17.60;56.02;100420.06;5067216;28;1115;-61
2023/05/22 12:39:09;;;;;;;;;;;;;;;16.92;57.06;100423.63;5064003;28;1295;-57
2023/05/22 12:41:35;;;;;;;;;;;;;;;16.57;57.12;100431.72;5075103;28;1961;-59
2023/05/22 12:44:02;;;;;;;;;;;;;;;16.39;57.05;100435.13;5060628;28;1328;-59
2023/05/22 12:46:30;;;;;;;;;;;;;;;16.33;56.71;100448.03;5046755;28;1571;-58
2023/05/22 12:48:55;;;;;;;;;;;;;;;16.16;56.51;100442.03;5063427;28;1249;-63